Time;durP1;ratioP1;P1;durP2;ratioP2;P2;SDS_P1;SDS_P2;PMS_P1;PMS_P2;Temp;Humidity;BMP_temperature;BMP_pressure;BME280_temperature;BME280_humidity;BME280_pressure;Samples;Min_cycle;Max_cycle;Signal;HPM_P1;HPM_P2
2024/01/09 00:00:00;;;;;;;237.20;87.77;;;-8.20;1.00;;;;;;10396667;28;20228;-80
2024/01/09 00:05:21;;;;;;;244.33;86.33;;;-8.10;1.00;;;;;;10430547;28;20246;-81
2024/01/09 00:10:42;;;;;;;238.37;88.43;;;-8.30;1.00;;;;;;10436591;28;20197;-79
2024/01/09 00:16:04;;;;;;;235.93;89.73;;;-8.30;1.00;;;;;;10409121;28;20226;-80
2024/01/09 00:21:26;;;;;;;253.00;93.13;;;-8.30;1.00;;;;;;10436639;28;20216;-82
2024/01/09 00:26:47;;;;;;;269.60;98.67;;;-8.20;1.00;;;;;;10413522;28;20209;-83
2024/01/09 00:32:08;;;;;;;258.80;95.87;;;-8.30;1.00;;;;;;10395583;28;20505;-79
2024/01/09 00:37:31;;;;;;;310.73;108.20;;;-8.30;1.00;;;;;;10396617;28;20239;-80
2024/01/09 00:42:55;;;;;;;330.10;108.60;;;-8.20;1.00;;;;;;10435872;28;20228;-81
2024/01/09 00:48:19;;;;;;;272.87;104.03;;;-8.30;1.00;;;;;;10436184;28;20266;-82
2024/01/09 00:53:40;;;;;;;269.03;101.67;;;-8.50;1.00;;;;;;10421141;28;20535;-83
2024/01/09 00:59:04;;;;;;;255.53;94.93;;;-8.50;1.00;;;;;;10441909;28;20196;-80
2024/01/09 01:04:26;;;;;;;362.50;115.10;;;-8.50;1.00;;;;;;10389803;28;20283;-83
2024/01/09 01:09:47;;;;;;;241.37;85.20;;;-8.50;1.00;;;;;;10389433;28;20400;-82
2024/01/09 01:15:09;;;;;;;188.70;73.30;;;-8.70;1.00;;;;;;10389329;28;20196;-81
2024/01/09 01:20:32;;;;;;;188.83;71.00;;;-8.70;1.00;;;;;;10402500;28;20224;-82
2024/01/09 01:25:54;;;;;;;197.53;74.43;;;-8.90;1.00;;;;;;10420113;28;20499;-78
2024/01/09 01:31:15;;;;;;;223.50;80.73;;;-8.80;1.00;;;;;;10402169;28;20200;-79
2024/01/09 01:36:36;;;;;;;215.00;82.67;;;-8.60;1.00;;;;;;10388183;28;20207;-79
2024/01/09 01:41:58;;;;;;;235.83;87.03;;;-8.70;1.00;;;;;;10438729;28;20382;-80
2024/01/09 01:47:20;;;;;;;225.20;86.83;;;-8.70;1.00;;;;;;10415035;28;20377;-80
2024/01/09 01:52:45;;;;;;;236.53;91.73;;;-8.60;1.00;;;;;;10428299;28;20254;-79
2024/01/09 01:58:06;;;;;;;219.03;87.23;;;-8.50;1.00;;;;;;10408893;28;20503;-79
2024/01/09 02:03:28;;;;;;;219.47;83.47;;;-8.50;1.00;;;;;;10423487;28;20224;-83
2024/01/09 02:08:49;;;;;;;225.63;85.53;;;-8.50;1.00;;;;;;10429805;28;20200;-82
2024/01/09 02:14:11;;;;;;;211.10;83.67;;;-8.50;1.00;;;;;;10441821;28;20291;-82
2024/01/09 02:19:34;;;;;;;213.50;78.80;;;-8.40;1.00;;;;;;10441032;28;20212;-82
2024/01/09 02:24:55;;;;;;;209.60;79.90;;;-8.50;1.00;;;;;;10440302;28;20224;-82
2024/01/09 02:30:17;;;;;;;208.47;78.17;;;-8.50;1.00;;;;;;10404321;28;20193;-80
2024/01/09 02:35:38;;;;;;;204.20;77.30;;;-8.50;1.00;;;;;;10399528;28;20189;-79
2024/01/09 02:41:00;;;;;;;204.33;77.27;;;-8.60;1.00;;;;;;10428449;28;20251;-81
2024/01/09 02:46:21;;;;;;;206.07;78.23;;;-8.60;1.00;;;;;;10426167;28;20197;-79
2024/01/09 02:51:42;;;;;;;189.43;74.33;;;-8.40;1.00;;;;;;10421931;28;20260;-80
2024/01/09 02:57:04;;;;;;;198.77;77.37;;;-8.50;1.00;;;;;;10402369;28;20300;-79
2024/01/09 03:02:25;;;;;;;212.97;77.93;;;-8.60;1.00;;;;;;10400859;28;20228;-80
2024/01/09 03:07:46;;;;;;;238.77;86.07;;;-8.70;1.00;;;;;;10412485;28;20216;-79
2024/01/09 03:13:08;;;;;;;227.80;83.63;;;-8.80;1.00;;;;;;10384603;28;20200;-80
2024/01/09 03:18:29;;;;;;;214.40;80.67;;;-8.70;1.00;;;;;;10398653;28;20243;-81
2024/01/09 03:23:50;;;;;;;192.77;75.53;;;-8.70;1.00;;;;;;10400459;28;20232;-79
2024/01/09 03:29:12;;;;;;;198.77;72.13;;;-8.50;1.00;;;;;;10383757;28;20193;-78
2024/01/09 03:34:33;;;;;;;138.67;55.90;;;-8.60;1.00;;;;;;10397441;28;20193;-78
2024/01/09 03:39:56;;;;;;;110.67;46.23;;;-8.60;1.00;;;;;;10403938;28;20460;-79
2024/01/09 03:45:17;;;;;;;94.37;39.60;;;-8.70;1.00;;;;;;10409781;28;20250;-79
2024/01/09 03:50:39;;;;;;;90.10;37.40;;;-8.60;1.00;;;;;;10437412;28;20254;-79
2024/01/09 03:56:03;;;;;;;87.83;36.13;;;-8.50;1.00;;;;;;10399134;28;20315;-80
2024/01/09 04:01:27;;;;;;;153.60;54.30;;;-8.40;1.00;;;;;;10397031;28;20231;-78
2024/01/09 04:06:49;;;;;;;174.97;63.43;;;-8.30;1.00;;;;;;10434948;28;20234;-79
2024/01/09 04:12:11;;;;;;;182.10;65.10;;;-8.40;1.00;;;;;;10437200;28;20275;-79
2024/01/09 04:17:34;;;;;;;185.30;61.87;;;-8.30;1.00;;;;;;10436533;28;20193;-79
2024/01/09 04:22:58;;;;;;;186.03;63.07;;;-8.30;1.00;;;;;;10409007;28;20232;-79
2024/01/09 04:28:20;;;;;;;196.57;68.10;;;-8.30;1.00;;;;;;10421289;28;20246;-79
2024/01/09 04:33:41;;;;;;;229.57;72.70;;;-8.20;1.00;;;;;;10408199;28;20550;-79
2024/01/09 04:39:02;;;;;;;210.67;66.30;;;-8.10;1.00;;;;;;10422591;28;20196;-81
2024/01/09 04:44:24;;;;;;;186.97;59.80;;;-8.10;1.00;;;;;;10435880;28;20226;-82
2024/01/09 04:49:45;;;;;;;156.07;55.23;;;-8.10;1.00;;;;;;10435967;28;20238;-79
2024/01/09 04:55:07;;;;;;;164.53;53.40;;;-8.10;1.00;;;;;;10410623;28;20319;-83
2024/01/09 05:00:28;;;;;;;166.40;58.43;;;-8.00;1.00;;;;;;10394558;28;20229;-83
2024/01/09 05:05:50;;;;;;;159.20;57.13;;;-8.10;1.00;;;;;;10411328;28;20207;-80
2024/01/09 05:11:12;;;;;;;130.87;48.53;;;-8.00;1.00;;;;;;10395118;28;20193;-79
2024/01/09 05:16:35;;;;;;;110.93;43.33;;;-7.90;1.00;;;;;;10408537;28;20196;-80
2024/01/09 05:21:57;;;;;;;92.50;39.33;;;-8.00;1.00;;;;;;10397956;28;20239;-82
2024/01/09 05:27:19;;;;;;;104.73;40.33;;;-8.10;1.00;;;;;;10394261;28;20208;-83
2024/01/09 05:32:40;;;;;;;94.73;38.60;;;-8.20;1.00;;;;;;10380381;28;20224;-82
2024/01/09 05:38:02;;;;;;;89.87;37.07;;;-8.20;1.00;;;;;;10399083;28;20212;-83
2024/01/09 05:43:24;;;;;;;107.43;43.50;;;-8.10;1.00;;;;;;10395578;28;20225;-83
2024/01/09 05:48:46;;;;;;;117.07;42.73;;;-8.10;1.00;;;;;;10401566;28;20204;-83
2024/01/09 05:54:07;;;;;;;123.67;46.13;;;-7.90;1.00;;;;;;10396965;28;20283;-81
2024/01/09 05:59:29;;;;;;;151.13;54.77;;;-8.00;1.00;;;;;;10401147;28;20429;-79
2024/01/09 06:04:50;;;;;;;172.07;60.47;;;-8.00;1.00;;;;;;10400850;28;20201;-80
2024/01/09 06:10:12;;;;;;;172.10;63.23;;;-7.90;1.00;;;;;;10400180;28;20221;-80
2024/01/09 06:15:34;;;;;;;176.83;68.57;;;-7.80;1.00;;;;;;10400296;28;20200;-81
2024/01/09 06:20:55;;;;;;;147.80;54.17;;;-7.70;1.00;;;;;;10403457;28;20220;-81
2024/01/09 06:26:17;;;;;;;144.97;52.57;;;-7.50;1.00;;;;;;10416400;28;20215;-82
2024/01/09 06:31:40;;;;;;;172.20;61.27;;;-7.60;1.00;;;;;;10413952;28;20204;-82
2024/01/09 06:37:02;;;;;;;197.17;71.47;;;-7.50;1.00;;;;;;10399532;28;20281;-81
2024/01/09 06:42:23;;;;;;;275.63;92.30;;;-7.60;1.00;;;;;;10412445;28;20275;-80
2024/01/09 06:47:44;;;;;;;616.07;237.77;;;-7.60;1.00;;;;;;10412879;28;20205;-81
2024/01/09 06:53:06;;;;;;;353.80;123.33;;;-7.70;1.00;;;;;;10416078;28;20483;-80
2024/01/09 06:58:28;;;;;;;264.17;93.57;;;-7.80;1.00;;;;;;10398729;28;20228;-79
2024/01/09 07:03:49;;;;;;;225.20;82.60;;;-7.70;1.00;;;;;;10398250;28;20221;-81
2024/01/09 07:09:11;;;;;;;225.90;79.63;;;-7.60;1.00;;;;;;10384214;28;20194;-80
2024/01/09 07:14:33;;;;;;;230.30;81.80;;;-7.60;1.00;;;;;;10412265;28;20394;-81
2024/01/09 07:19:54;;;;;;;267.93;93.93;;;-7.50;1.00;;;;;;10397958;28;20514;-83
2024/01/09 07:25:16;;;;;;;264.37;94.33;;;-7.40;1.00;;;;;;10423868;28;20214;-83
2024/01/09 07:30:37;;;;;;;261.03;99.20;;;-7.40;1.00;;;;;;10424650;28;20207;-82
2024/01/09 07:35:59;;;;;;;220.73;89.37;;;-7.30;1.00;;;;;;10424432;28;20275;-79
2024/01/09 07:41:20;;;;;;;200.23;78.03;;;-7.20;1.00;;;;;;10423340;28;20592;-81
2024/01/09 07:46:42;;;;;;;253.83;90.87;;;-7.10;1.00;;;;;;10438116;28;20219;-79
2024/01/09 07:52:05;;;;;;;211.03;76.20;;;-7.10;1.00;;;;;;10425868;28;20211;-81
2024/01/09 07:57:26;;;;;;;135.43;55.33;;;-6.90;1.00;;;;;;10396902;28;20546;-80
2024/01/09 08:02:50;;;;;;;133.53;47.47;;;-6.70;1.00;;;;;;10409586;28;20627;-81
2024/01/09 08:08:12;;;;;;;111.40;37.27;;;-6.50;1.00;;;;;;10431055;28;20281;-80
2024/01/09 08:13:34;;;;;;;90.23;27.63;;;-6.30;1.00;;;;;;10391598;28;20285;-80
2024/01/09 08:18:55;;;;;;;58.13;19.97;;;-6.20;1.00;;;;;;10425978;28;20193;-89
2024/01/09 08:24:18;;;;;;;24.50;10.97;;;-6.00;1.00;;;;;;10412786;28;20231;-79
2024/01/09 08:29:43;;;;;;;27.63;11.70;;;-5.70;1.00;;;;;;10380543;28;20208;-79
2024/01/09 08:35:05;;;;;;;41.43;15.13;;;-5.60;1.00;;;;;;10401741;28;20519;-79
2024/01/09 08:40:26;;;;;;;46.30;17.00;;;-5.20;1.00;;;;;;10429969;28;20221;-79
2024/01/09 08:45:49;;;;;;;41.57;13.47;;;-3.60;1.00;;;;;;10431199;28;20821;-79
2024/01/09 08:51:10;;;;;;;21.30;10.33;;;-2.20;1.00;;;;;;10415856;28;20219;-79
2024/01/09 08:56:32;;;;;;;46.87;17.27;;;-1.30;1.00;;;;;;10419132;28;20252;-81
2024/01/09 09:01:54;;;;;;;52.77;23.70;;;-0.90;1.00;;;;;;10430694;28;20855;-81
2024/01/09 09:07:15;;;;;;;81.40;37.40;;;-1.80;1.00;;;;;;10408026;28;20198;-81
2024/01/09 09:12:37;;;;;;;82.27;39.73;;;-2.80;1.00;;;;;;10409062;28;20222;-81
2024/01/09 09:18:00;;;;;;;100.00;43.50;;;-3.30;1.00;;;;;;10431960;28;20558;-78
2024/01/09 09:23:21;;;;;;;99.73;43.27;;;-3.50;1.00;;;;;;10424784;28;20248;-80
2024/01/09 09:28:47;;;;;;;106.37;44.10;;;-3.70;1.00;;;;;;10398336;28;20221;-81
2024/01/09 09:34:09;;;;;;;68.27;29.43;;;-3.80;1.00;;;;;;10396345;28;20216;-82
2024/01/09 09:39:30;;;;;;;58.40;23.53;;;-3.90;1.00;;;;;;10399200;28;20203;-80
2024/01/09 09:44:55;;;;;;;62.33;27.43;;;-3.80;1.00;;;;;;10437873;28;20219;-80
2024/01/09 09:50:17;;;;;;;48.17;22.27;;;-3.90;1.00;;;;;;10447925;28;20266;-77
2024/01/09 09:55:40;;;;;;;48.70;19.70;;;-3.90;1.00;;;;;;10409541;28;20259;-82
2024/01/09 10:01:02;;;;;;;26.37;13.10;;;-3.80;1.00;;;;;;10436677;28;20226;-80
2024/01/09 10:06:26;;;;;;;24.47;11.57;;;-3.80;1.00;;;;;;10436465;28;20201;-81
2024/01/09 10:11:52;;;;;;;21.67;11.13;;;-3.70;1.00;;;;;;10430256;28;20243;-81
2024/01/09 10:17:14;;;;;;;20.63;11.47;;;-3.60;1.00;;;;;;10409373;28;20196;-80
2024/01/09 10:22:38;;;;;;;18.13;9.60;;;-3.40;1.00;;;;;;10448297;28;20219;-83
2024/01/09 10:28:00;;;;;;;19.53;10.33;;;-2.90;1.00;;;;;;10420410;28;20195;-80
2024/01/09 10:33:22;;;;;;;39.03;18.53;;;-2.60;1.00;;;;;;10432074;28;20398;-80
2024/01/09 10:38:45;;;;;;;25.13;11.20;;;-2.40;1.00;;;;;;10405547;28;20468;-80
2024/01/09 10:44:07;;;;;;;20.43;11.73;;;-2.30;1.00;;;;;;10371905;28;20236;-80
2024/01/09 10:49:29;;;;;;;23.77;10.73;;;-2.30;1.00;;;;;;10382905;28;20215;-83
2024/01/09 10:54:50;;;;;;;20.97;10.47;;;-2.20;1.00;;;;;;10426277;28;20232;-80
2024/01/09 11:00:12;;;;;;;19.20;10.50;;;-2.10;1.00;;;;;;10421306;28;20199;-80
2024/01/09 11:05:34;;;;;;;18.53;10.37;;;-2.10;1.00;;;;;;10434557;28;20506;-82
2024/01/09 11:10:55;;;;;;;23.83;11.90;;;-2.20;1.00;;;;;;10430751;28;20239;-78
2024/01/09 11:16:19;;;;;;;22.83;11.33;;;-2.10;1.00;;;;;;10420195;28;20603;-79
2024/01/09 11:21:40;;;;;;;23.23;10.97;;;-2.00;1.00;;;;;;10406722;28;20224;-88
2024/01/09 11:27:12;;;;;;;19.50;10.30;;;-2.10;1.00;;;;;;10420906;28;20282;-78
2024/01/09 11:32:33;;;;;;;21.47;10.47;;;-2.10;1.00;;;;;;10448722;28;20327;-85
2024/01/09 11:37:58;;;;;;;17.57;10.17;;;-2.20;1.00;;;;;;10419754;28;20217;-81
2024/01/09 11:43:20;;;;;;;23.97;11.27;;;-2.10;1.00;;;;;;10432681;28;20263;-86
2024/01/09 11:48:43;;;;;;;20.97;10.70;;;-2.00;1.00;;;;;;10432491;28;20186;-86
2024/01/09 11:54:08;;;;;;;20.40;11.13;;;-1.90;1.00;;;;;;10416230;28;20229;-78
2024/01/09 11:59:33;;;;;;;33.13;16.23;;;-1.80;1.00;;;;;;10430836;28;20491;-80
2024/01/09 12:04:55;;;;;;;44.30;22.40;;;-1.80;1.00;;;;;;10386898;28;20229;-84
2024/01/09 12:10:16;;;;;;;35.23;16.43;;;-1.80;1.00;;;;;;10432335;28;20196;-82
2024/01/09 12:15:40;;;;;;;23.63;12.40;;;-1.80;1.00;;;;;;10428367;28;20213;-77
2024/01/09 12:21:02;;;;;;;19.47;10.70;;;-1.80;1.00;;;;;;10432666;28;20225;-81
2024/01/09 12:26:26;;;;;;;20.80;10.73;;;-1.70;1.00;;;;;;10431304;28;20201;-79
2024/01/09 12:31:47;;;;;;;20.20;9.97;;;-1.60;1.00;;;;;;10431248;28;20206;-80
2024/01/09 12:37:08;;;;;;;23.47;11.23;;;-1.50;1.00;;;;;;10392468;28;20236;-79
2024/01/09 12:42:30;;;;;;;19.33;10.93;;;-1.50;1.00;;;;;;10422515;28;20220;-78
2024/01/09 12:47:55;;;;;;;21.67;12.30;;;-1.50;33.00;;;;;;10429346;28;20198;-80
2024/01/09 12:53:17;;;;;;;20.37;11.57;;;-1.40;1.00;;;;;;10429498;28;20288;-80
2024/01/09 12:58:45;;;;;;;23.53;12.23;;;-1.50;40.80;;;;;;10409113;28;20475;-80
2024/01/09 13:04:07;;;;;;;23.70;13.17;;;-1.50;99.90;;;;;;10417263;28;20257;-80
2024/01/09 13:09:28;;;;;;;29.37;13.87;;;-1.50;99.90;;;;;;10410563;28;20197;-78
2024/01/09 13:14:49;;;;;;;31.23;16.10;;;-1.50;99.90;;;;;;10400890;28;20376;-80
2024/01/09 13:20:12;;;;;;;20.10;11.17;;;-1.40;99.90;;;;;;10403108;28;20231;-88
2024/01/09 13:25:33;;;;;;;24.87;12.57;;;-1.30;99.90;;;;;;10391128;28;20393;-80
2024/01/09 13:30:55;;;;;;;26.77;14.27;;;-1.20;1.00;;;;;;10428920;28;20205;-81
2024/01/09 13:36:18;;;;;;;22.13;12.93;;;-1.30;1.00;;;;;;10429264;28;20209;-84
2024/01/09 13:41:42;;;;;;;40.97;20.57;;;-1.40;1.00;;;;;;10428265;28;20217;-79
2024/01/09 13:47:04;;;;;;;52.73;26.40;;;-1.40;1.00;;;;;;10427318;28;20284;-76
2024/01/09 13:52:25;;;;;;;52.63;26.73;;;-1.40;1.00;;;;;;10425200;28;20190;-79
2024/01/09 13:57:48;;;;;;;65.80;28.83;;;-1.40;1.00;;;;;;10413355;28;20795;-79
2024/01/09 14:03:09;;;;;;;40.70;20.63;;;-1.40;99.90;;;;;;10434837;28;20229;-78
2024/01/09 14:08:33;;;;;;;21.40;12.17;;;-1.30;1.00;;;;;;10434766;28;20217;-79
2024/01/09 14:13:57;;;;;;;22.20;13.60;;;-1.10;33.90;;;;;;10428801;28;20269;-82
2024/01/09 14:19:19;;;;;;;25.13;13.83;;;-1.00;1.00;;;;;;10420421;28;20267;-77
2024/01/09 14:24:41;;;;;;;22.30;11.50;;;-0.90;99.90;;;;;;10426732;28;20233;-77
2024/01/09 14:30:04;;;;;;;23.23;13.70;;;-0.80;99.90;;;;;;10412549;28;20217;-80
2024/01/09 14:35:25;;;;;;;25.53;14.03;;;-0.80;1.00;;;;;;10406931;28;20227;-78
2024/01/09 14:40:46;;;;;;;21.27;10.23;;;-0.70;99.90;;;;;;10387206;28;20481;-78
2024/01/09 14:46:11;;;;;;;16.73;10.63;;;-0.60;99.90;;;;;;10415614;28;20236;-78
2024/01/09 14:51:36;;;;;;;22.93;12.10;;;-0.70;99.90;;;;;;10431673;28;20210;-82
2024/01/09 14:56:58;;;;;;;22.30;11.70;;;-0.80;8.10;;;;;;10421804;28;20240;-82
2024/01/09 15:02:22;;;;;;;25.37;12.77;;;-0.80;1.00;;;;;;10422809;28;20257;-79
2024/01/09 15:07:44;;;;;;;16.77;10.07;;;-0.70;1.90;;;;;;10445306;28;20214;-80
2024/01/09 15:13:05;;;;;;;22.57;12.47;;;-0.70;99.90;;;;;;10405272;28;20302;-83
2024/01/09 15:18:27;;;;;;;32.43;15.33;;;-0.70;1.00;;;;;;10419023;28;20240;-80
2024/01/09 15:23:49;;;;;;;43.03;20.37;;;-0.70;1.00;;;;;;10420356;28;20238;-81
2024/01/09 15:29:11;;;;;;;17.10;10.47;;;-0.70;99.90;;;;;;10433485;28;20198;-79
2024/01/09 15:34:32;;;;;;;13.63;9.13;;;-0.70;99.90;;;;;;10433247;28;20210;-83
2024/01/09 15:39:53;;;;;;;24.07;12.60;;;-0.60;1.00;;;;;;10430808;28;20209;-83
2024/01/09 15:45:18;;;;;;;18.83;10.63;;;-0.70;1.00;;;;;;10416706;28;20238;-79
2024/01/09 15:50:39;;;;;;;15.97;9.40;;;-0.70;1.00;;;;;;10392954;28;20700;-79
2024/01/09 15:56:00;;;;;;;21.63;11.37;;;-0.60;94.70;;;;;;10424275;28;20279;-82
2024/01/09 16:01:24;;;;;;;19.80;10.53;;;-0.70;99.90;;;;;;10405270;28;20503;-86
2024/01/09 16:06:45;;;;;;;18.90;9.67;;;-0.70;99.90;;;;;;10436851;28;20199;-85
2024/01/09 16:12:07;;;;;;;16.43;9.23;;;-0.80;99.90;;;;;;10436129;28;20195;-81
2024/01/09 16:17:28;;;;;;;20.27;9.43;;;-0.80;99.90;;;;;;10437379;28;20208;-81
2024/01/09 16:22:50;;;;;;;40.33;16.90;;;-0.70;1.00;;;;;;10423401;28;20230;-84
2024/01/09 16:28:12;;;;;;;20.20;12.03;;;-0.80;99.90;;;;;;10416770;28;20220;-80
2024/01/09 16:33:33;;;;;;;18.80;9.83;;;-0.80;13.30;;;;;;10405906;28;20198;-80
2024/01/09 16:38:55;;;;;;;17.37;9.60;;;-0.70;1.00;;;;;;10435268;28;20509;-79
2024/01/09 16:44:17;;;;;;;24.27;13.50;;;-0.60;41.00;;;;;;10422292;28;20226;-84
2024/01/09 16:49:41;;;;;;;33.97;15.67;;;-0.60;99.90;;;;;;10435349;28;20187;-79
2024/01/09 16:55:03;;;;;;;30.13;13.97;;;-0.70;99.90;;;;;;10415751;28;20411;-79
2024/01/09 17:00:25;;;;;;;17.80;11.23;;;-0.70;99.90;;;;;;10411474;28;20224;-84
2024/01/09 17:05:46;;;;;;;19.97;10.83;;;-0.70;1.00;;;;;;10402863;28;20234;-85
2024/01/09 17:11:09;;;;;;;16.07;9.13;;;-0.70;99.90;;;;;;10395452;28;20277;-82
2024/01/09 17:16:30;;;;;;;24.87;13.27;;;-0.70;73.80;;;;;;10395094;28;20199;-85
2024/01/09 17:21:51;;;;;;;21.50;12.60;;;-0.70;99.90;;;;;;10385855;28;20226;-82
2024/01/09 17:27:13;;;;;;;20.17;10.50;;;-0.60;99.90;;;;;;10422080;28;20211;-82
2024/01/09 17:32:35;;;;;;;19.40;9.83;;;-0.60;1.00;;;;;;10407712;28;20276;-83
2024/01/09 17:37:57;;;;;;;23.13;11.67;;;-0.60;1.00;;;;;;10422636;28;20209;-83
2024/01/09 17:43:18;;;;;;;35.30;17.47;;;-0.60;1.00;;;;;;10416400;28;20313;-85
2024/01/09 17:48:40;;;;;;;37.40;17.73;;;-0.60;1.00;;;;;;10429426;28;20541;-81
2024/01/09 17:54:03;;;;;;;34.13;16.67;;;-0.70;1.00;;;;;;10404962;28;20326;-81
2024/01/09 17:59:24;;;;;;;28.57;12.47;;;-0.70;90.60;;;;;;10416404;28;20238;-81
2024/01/09 18:04:49;;;;;;;28.53;14.67;;;-0.80;1.00;;;;;;10431976;28;20234;-86
2024/01/09 18:10:10;;;;;;;31.83;15.87;;;-0.80;99.90;;;;;;10425859;28;20492;-84
2024/01/09 18:15:32;;;;;;;34.47;17.67;;;-0.80;99.90;;;;;;10427874;28;20214;-80
2024/01/09 18:20:55;;;;;;;24.13;14.67;;;-0.70;1.00;;;;;;10420218;28;20215;-82
2024/01/09 18:26:17;;;;;;;25.27;14.10;;;-0.60;5.90;;;;;;10401049;28;20191;-81
2024/01/09 18:31:45;;;;;;;27.73;15.47;;;-0.60;1.00;;;;;;10386295;28;20195;-82
2024/01/09 18:37:07;;;;;;;26.13;17.30;;;-0.60;99.90;;;;;;10429013;28;20199;-86
2024/01/09 18:42:29;;;;;;;25.07;16.47;;;-0.60;99.90;;;;;;10442495;28;20260;-80
2024/01/09 18:47:51;;;;;;;23.93;16.20;;;-0.60;99.90;;;;;;10440913;28;20225;-81
2024/01/09 18:53:15;;;;;;;27.47;16.97;;;-0.50;1.00;;;;;;10439860;28;20429;-85
2024/01/09 18:58:36;;;;;;;29.37;17.73;;;-0.50;1.00;;;;;;10426374;28;20213;-84
2024/01/09 19:03:58;;;;;;;26.23;16.03;;;-0.40;1.00;;;;;;10415747;28;20574;-83
2024/01/09 19:09:22;;;;;;;36.33;18.83;;;-0.50;1.00;;;;;;10439818;28;20504;-86
2024/01/09 19:14:44;;;;;;;35.03;17.83;;;-0.50;99.90;;;;;;10425489;28;20509;-81
2024/01/09 19:20:07;;;;;;;44.77;19.90;;;-0.50;99.90;;;;;;10439462;28;20214;-82
2024/01/09 19:25:28;;;;;;;33.57;16.37;;;-0.60;24.60;;;;;;10425213;28;20236;-81
2024/01/09 19:30:50;;;;;;;23.50;12.73;;;-0.60;99.90;;;;;;10423906;28;20195;-82
2024/01/09 19:36:11;;;;;;;22.20;12.47;;;-0.70;1.00;;;;;;10447321;28;20210;-81
2024/01/09 19:41:33;;;;;;;25.90;14.03;;;-0.70;1.00;;;;;;10403359;28;20208;-80
2024/01/09 19:46:54;;;;;;;28.90;14.33;;;-0.60;1.00;;;;;;10438389;28;20515;-85
2024/01/09 19:52:15;;;;;;;24.80;12.50;;;-0.60;1.00;;;;;;10437913;28;20435;-83
2024/01/09 19:57:39;;;;;;;30.37;13.63;;;-0.60;1.00;;;;;;10423690;28;20246;-80
2024/01/09 20:03:00;;;;;;;26.23;14.30;;;-0.70;16.50;;;;;;10412906;28;20222;-81
2024/01/09 20:08:21;;;;;;;26.00;14.50;;;-0.70;41.10;;;;;;10424207;28;20189;-86
2024/01/09 20:13:43;;;;;;;24.80;13.07;;;-0.70;99.90;;;;;;10437336;28;20281;-82
2024/01/09 20:19:04;;;;;;;22.33;12.47;;;-0.70;1.00;;;;;;10437458;28;20201;-81
2024/01/09 20:24:26;;;;;;;20.50;11.17;;;-0.60;99.90;;;;;;10436489;28;20225;-82
2024/01/09 20:29:48;;;;;;;22.47;12.77;;;-0.50;96.00;;;;;;10436965;28;20248;-84
2024/01/09 20:35:09;;;;;;;17.37;10.97;;;-0.40;1.00;;;;;;10445094;28;20227;-83
2024/01/09 20:40:30;;;;;;;18.20;10.07;;;-0.40;99.90;;;;;;10401290;28;20260;-83
2024/01/09 20:45:51;;;;;;;26.93;13.03;;;-0.30;99.90;;;;;;10419682;28;20330;-86
2024/01/09 20:51:14;;;;;;;25.97;12.13;;;-0.30;1.00;;;;;;10404210;28;20202;-83
2024/01/09 20:56:36;;;;;;;22.13;11.90;;;-0.30;99.90;;;;;;10408357;28;20242;-85
2024/01/09 21:01:57;;;;;;;23.13;12.57;;;-0.30;99.90;;;;;;10436394;28;20218;-84
2024/01/09 21:07:18;;;;;;;18.43;11.03;;;-0.20;1.00;;;;;;10409257;28;20300;-82
2024/01/09 21:12:40;;;;;;;18.83;11.23;;;-0.20;1.00;;;;;;10395816;28;20195;-85
2024/01/09 21:18:01;;;;;;;23.30;12.20;;;-0.20;1.00;;;;;;10389628;28;20210;-84
2024/01/09 21:23:22;;;;;;;22.60;12.90;;;-0.30;99.90;;;;;;10404015;28;20266;-82
2024/01/09 21:28:44;;;;;;;19.17;10.03;;;-0.30;99.90;;;;;;10441871;28;20201;-82
2024/01/09 21:34:06;;;;;;;23.27;9.03;;;-0.30;1.00;;;;;;10444111;28;20504;-85
2024/01/09 21:39:28;;;;;;;13.60;8.73;;;-0.20;1.00;;;;;;10419439;28;20221;-82
2024/01/09 21:44:51;;;;;;;19.73;8.57;;;-0.20;99.90;;;;;;10403167;28;20248;-84
2024/01/09 21:50:12;;;;;;;18.80;10.37;;;-0.10;99.90;;;;;;10424967;28;20202;-84
2024/01/09 21:55:34;;;;;;;17.57;9.47;;;-0.20;1.00;;;;;;10388325;28;20533;-83
2024/01/09 22:00:55;;;;;;;19.73;9.83;;;-0.10;99.90;;;;;;10402507;28;20197;-84
2024/01/09 22:06:16;;;;;;;15.23;8.67;;;-0.10;99.90;;;;;;10405200;28;20553;-84
2024/01/09 22:11:41;;;;;;;23.90;10.33;;;-0.10;1.00;;;;;;10401730;28;20218;-86
2024/01/09 22:17:02;;;;;;;13.80;8.60;;;-0.10;93.20;;;;;;10401536;28;20453;-84
2024/01/09 22:22:24;;;;;;;21.80;11.10;;;-0.10;1.00;;;;;;10455881;28;20233;-85
2024/01/09 22:27:45;;;;;;;17.17;9.70;;;-0.10;1.00;;;;;;10442048;28;20267;-85
2024/01/09 22:33:07;;;;;;;15.50;9.47;;;-0.10;96.20;;;;;;10428743;28;20199;-84
2024/01/09 22:38:28;;;;;;;16.07;9.87;;;-0.10;1.00;;;;;;10445148;28;20250;-85
2024/01/09 22:43:50;;;;;;;13.77;8.97;;;0.00;99.90;;;;;;10401676;28;20242;-84
2024/01/09 22:49:12;;;;;;;35.97;14.10;;;0.00;1.00;;;;;;10403540;28;20289;-86
2024/01/09 22:54:35;;;;;;;15.03;8.60;;;-0.10;99.90;;;;;;10404993;28;20473;-80
2024/01/09 22:59:56;;;;;;;17.50;8.87;;;0.00;99.90;;;;;;10399400;28;20199;-82
2024/01/09 23:05:18;;;;;;;12.23;8.53;;;-0.10;99.90;;;;;;10426515;28;20412;-83
2024/01/09 23:10:39;;;;;;;14.33;8.93;;;-0.10;1.00;;;;;;10399100;28;20274;-84
2024/01/09 23:16:01;;;;;;;12.93;8.40;;;-0.10;99.90;;;;;;10398859;28;20195;-83
2024/01/09 23:21:22;;;;;;;14.03;8.33;;;0.00;1.00;;;;;;10402636;28;20210;-84
2024/01/09 23:26:43;;;;;;;14.97;9.23;;;-0.10;99.90;;;;;;10398842;28;20549;-85
2024/01/09 23:32:07;;;;;;;16.30;9.77;;;-0.10;99.90;;;;;;10398336;28;20202;-84
2024/01/09 23:37:30;;;;;;;15.73;10.23;;;-0.10;1.00;;;;;;10397112;28;20200;-85
2024/01/09 23:42:52;;;;;;;15.77;9.47;;;0.00;1.00;;;;;;10411153;28;20547;-84
2024/01/09 23:48:13;;;;;;;17.03;10.40;;;0.00;99.90;;;;;;10423626;28;20207;-84
2024/01/09 23:53:34;;;;;;;19.83;11.43;;;0.00;1.00;;;;;;10438358;28;20260;-84
2024/01/09 23:58:55;;;;;;;15.80;10.63;;;0.00;1.00;;;;;;10407041;28;20198;-80
